Porteirinha, Brazil
Current Conditions -  °F | °C
As of 8:15 AM on Wednesday 22 Oct 2014 (Local Time) from SBSM Reporting Station
Broken Clouds Broken Clouds  
Wind Chill: 59°   Ceiling: 400
Heat Index: 59°   Visibility: 6mi
Dew Point: 55°   Wind: 3mph
Humidity: 88%   Direction: 90°E
Pressure: 30.15"   Gusts: NA
Location:  30.63°S, 55.27°W
Report Text: SBSM 221015Z 09003KT 9999 BKN004 15/13 Q1021
Loading
Personal Weather Stations






























Interactive Weather Map
Tropical Storm Tracking
New forecast layout! Learn more

10-Day Weather Forecast

Advertisements
Track Severe Weather on mobile